createdAt,value
2018-08-31T00:00:40.249Z,47.50
2018-08-31T00:05:58.561Z,47.60
2018-08-31T00:11:46.341Z,47.60
2018-08-31T00:16:49.654Z,47.60
2018-08-31T00:21:53.307Z,47.40
2018-08-31T00:27:08.675Z,47.50
2018-08-31T00:34:30.243Z,47.30
2018-08-31T00:39:44.686Z,47.30
2018-08-31T00:45:01.417Z,47.20
2018-08-31T00:50:04.757Z,47.30
2018-08-31T00:55:07.931Z,47.50
2018-08-31T01:00:11.092Z,47.40
2018-08-31T01:05:14.606Z,47.20
2018-08-31T01:10:19.717Z,47.20
2018-08-31T01:15:22.940Z,47.30
2018-08-31T01:20:26.167Z,47.30
2018-08-31T01:25:29.351Z,47.20
2018-08-31T01:30:32.524Z,47.10
2018-08-31T01:35:35.760Z,47.30
2018-08-31T01:40:39.134Z,47.30
2018-08-31T01:45:42.600Z,47.30
2018-08-31T01:50:51.731Z,47.30
2018-08-31T01:55:55.005Z,47.60
2018-08-31T02:00:58.216Z,47.40
2018-08-31T02:06:01.449Z,47.50
2018-08-31T02:11:04.808Z,47.30
2018-08-31T02:16:08.014Z,47.10
2018-08-31T02:21:11.270Z,47.20
2018-08-31T02:26:14.813Z,47.10
2018-08-31T02:31:18.026Z,47.10
2018-08-31T02:36:21.368Z,47.00
2018-08-31T02:41:24.539Z,47.00
2018-08-31T02:46:27.794Z,47.00
2018-08-31T02:51:31.164Z,46.90
2018-08-31T02:56:34.382Z,46.80
2018-08-31T03:01:37.629Z,46.90
2018-08-31T03:06:40.813Z,46.80
2018-08-31T03:11:44.070Z,46.80
2018-08-31T03:16:47.317Z,46.70
2018-08-31T03:21:50.511Z,46.80
2018-08-31T03:26:53.779Z,46.70
2018-08-31T03:31:57.091Z,46.70
2018-08-31T03:37:00.491Z,46.60
2018-08-31T03:42:03.683Z,46.60
2018-08-31T03:47:07.076Z,46.60
2018-08-31T03:52:10.371Z,46.50
2018-08-31T03:57:13.532Z,46.50
2018-08-31T04:02:16.779Z,46.50
2018-08-31T04:07:19.966Z,46.50
2018-08-31T04:12:23.325Z,46.50
2018-08-31T04:17:26.685Z,46.50
2018-08-31T04:22:29.924Z,47.00
2018-08-31T04:27:33.467Z,46.40
2018-08-31T04:32:36.673Z,46.40
2018-08-31T04:37:41.275Z,46.30
2018-08-31T04:42:44.628Z,46.30
2018-08-31T04:47:47.867Z,46.30
2018-08-31T04:52:51.207Z,46.30
2018-08-31T04:57:54.547Z,46.30
2018-08-31T05:02:57.958Z,46.20
2018-08-31T05:08:01.821Z,46.20
2018-08-31T05:13:06.167Z,46.20
2018-08-31T05:18:09.453Z,46.20
2018-08-31T05:23:12.703Z,46.10
2018-08-31T05:28:16.395Z,46.00
2018-08-31T05:33:19.680Z,46.00
2018-08-31T05:38:23.138Z,46.00
2018-08-31T05:43:27.543Z,45.90
2018-08-31T05:48:30.773Z,45.90
2018-08-31T05:53:34.392Z,45.80
2018-08-31T05:58:37.510Z,45.80
2018-08-31T06:03:40.753Z,45.70
2018-08-31T06:08:44.905Z,45.70
2018-08-31T06:13:48.811Z,45.60
2018-08-31T06:18:52.159Z,45.50
2018-08-31T06:23:55.579Z,45.50
2018-08-31T06:29:00.096Z,45.50
2018-08-31T06:34:04.871Z,45.50
2018-08-31T06:39:08.894Z,45.50
2018-08-31T06:44:12.814Z,45.50
2018-08-31T06:49:16.295Z,45.40
2018-08-31T06:54:20.309Z,45.50
2018-08-31T06:59:24.022Z,45.30
2018-08-31T07:04:27.250Z,45.20
2018-08-31T07:09:30.632Z,45.20
2018-08-31T07:14:34.253Z,45.20
2018-08-31T07:19:37.596Z,45.20
2018-08-31T07:24:41.586Z,45.10
2018-08-31T07:29:45.146Z,45.20
2018-08-31T07:34:48.373Z,45.10
2018-08-31T07:39:51.681Z,45.10
2018-08-31T07:44:54.906Z,45.10
2018-08-31T07:49:58.299Z,45.10
2018-08-31T07:55:01.532Z,45.00
2018-08-31T08:00:04.736Z,45.00
2018-08-31T08:05:08.328Z,45.00
2018-08-31T08:10:12.240Z,45.00
2018-08-31T08:15:15.686Z,45.00
2018-08-31T08:20:19.899Z,45.60
2018-08-31T08:25:23.152Z,45.00
2018-08-31T08:30:26.345Z,45.00
2018-08-31T08:35:29.669Z,44.90
2018-08-31T08:40:32.954Z,44.90
2018-08-31T08:45:36.446Z,44.90
2018-08-31T08:50:39.800Z,45.50
2018-08-31T08:55:43.310Z,44.90
2018-08-31T09:00:46.527Z,44.90
2018-08-31T09:05:49.777Z,44.90
2018-08-31T09:10:53.113Z,44.80
2018-08-31T09:15:56.419Z,44.80
2018-08-31T09:20:59.728Z,44.80
2018-08-31T09:26:05.230Z,45.30
2018-08-31T09:31:12.563Z,44.70
2018-08-31T09:36:15.897Z,44.70
2018-08-31T09:41:19.144Z,44.70
2018-08-31T09:46:22.526Z,44.70
2018-08-31T09:51:25.940Z,44.80
2018-08-31T09:56:29.247Z,44.70
2018-08-31T10:01:33.893Z,44.70
2018-08-31T10:06:37.254Z,44.60
2018-08-31T10:11:40.822Z,44.70
2018-08-31T10:16:44.084Z,44.60
2018-08-31T10:21:47.460Z,44.50
2018-08-31T10:26:51.112Z,44.40
2018-08-31T10:31:55.549Z,44.50
2018-08-31T10:36:58.983Z,44.50
2018-08-31T10:42:02.426Z,44.40
2018-08-31T10:47:05.864Z,44.50
2018-08-31T10:52:09.210Z,45.00
2018-08-31T10:57:12.828Z,44.40
2018-08-31T11:02:17.064Z,44.40
2018-08-31T11:07:20.783Z,44.40
2018-08-31T11:12:24.494Z,44.40
2018-08-31T11:17:27.856Z,44.40
2018-08-31T11:22:31.130Z,44.40
2018-08-31T11:27:34.680Z,44.30
2018-08-31T11:32:38.465Z,44.30
2018-08-31T11:37:42.790Z,44.40
2018-08-31T11:42:46.223Z,44.50
2018-08-31T11:47:49.673Z,44.40
2018-08-31T11:52:53.234Z,44.40
2018-08-31T11:57:57.276Z,44.50
2018-08-31T12:03:00.524Z,44.50
2018-08-31T12:08:05.448Z,44.50
2018-08-31T12:13:08.957Z,44.30
2018-08-31T12:18:12.205Z,44.20
2018-08-31T12:23:28.824Z,44.20
2018-08-31T12:28:32.103Z,43.90
2018-08-31T12:33:35.378Z,43.90
2018-08-31T12:38:38.626Z,43.90
2018-08-31T12:43:42.212Z,43.90
2018-08-31T12:48:45.506Z,43.70
2018-08-31T12:53:49.445Z,43.70
2018-08-31T12:58:53.056Z,43.70
2018-08-31T13:03:56.624Z,43.50
2018-08-31T13:09:01.625Z,43.50
2018-08-31T13:14:04.888Z,43.40
2018-08-31T13:19:08.402Z,43.50
2018-08-31T13:24:18.576Z,43.60
2018-08-31T13:29:22.398Z,43.60
2018-08-31T13:34:25.878Z,43.60
2018-08-31T13:39:29.122Z,43.60
2018-08-31T13:44:32.999Z,43.60
2018-08-31T13:49:36.282Z,43.70
2018-08-31T13:54:40.457Z,43.70
2018-08-31T13:59:43.835Z,43.60
2018-08-31T14:04:47.265Z,43.60
2018-08-31T14:09:50.570Z,43.60
2018-08-31T14:14:53.825Z,43.70
2018-08-31T14:19:57.248Z,43.70
2018-08-31T14:25:00.590Z,43.80
2018-08-31T14:30:04.096Z,43.80
2018-08-31T14:35:07.593Z,43.70
2018-08-31T14:40:11.118Z,43.90
2018-08-31T14:45:14.404Z,43.80
2018-08-31T14:50:17.739Z,43.80
2018-08-31T14:55:20.925Z,43.80
2018-08-31T15:00:24.168Z,43.80
2018-08-31T15:05:28.064Z,43.70
2018-08-31T15:10:31.856Z,43.80
2018-08-31T15:15:36.196Z,43.70
2018-08-31T15:20:39.748Z,44.40
2018-08-31T15:25:45.540Z,43.80
2018-08-31T15:30:48.811Z,43.90
2018-08-31T15:35:52.053Z,43.90
2018-08-31T15:40:55.304Z,43.90
2018-08-31T15:45:58.799Z,44.00
2018-08-31T15:51:02.122Z,44.10
2018-08-31T15:56:05.688Z,43.90
2018-08-31T16:01:08.984Z,43.90
2018-08-31T16:06:12.231Z,44.00
2018-08-31T16:11:15.532Z,44.10
2018-08-31T16:16:18.806Z,44.00
2018-08-31T16:21:22.343Z,44.00
2018-08-31T16:26:26.314Z,43.90
2018-08-31T16:31:29.709Z,43.90
2018-08-31T16:36:33.334Z,43.90
2018-08-31T16:41:36.841Z,43.70
2018-08-31T16:46:40.649Z,43.60
2018-08-31T16:51:45.030Z,43.40
2018-08-31T16:56:49.567Z,42.90
2018-08-31T17:01:54.393Z,42.80
2018-08-31T17:06:58.004Z,42.80
2018-08-31T17:12:01.279Z,42.90
2018-08-31T17:17:05.662Z,43.10
2018-08-31T17:22:09.336Z,43.30
2018-08-31T17:27:18.084Z,43.20
2018-08-31T17:32:26.815Z,43.30
2018-08-31T17:37:31.947Z,43.30
2018-08-31T17:42:39.877Z,43.20
2018-08-31T17:47:43.478Z,43.20
2018-08-31T17:52:47.312Z,43.10
2018-08-31T17:57:51.881Z,43.20
2018-08-31T18:02:55.170Z,43.20
2018-08-31T18:07:58.477Z,43.10
2018-08-31T18:13:01.932Z,43.10
2018-08-31T18:18:05.490Z,43.20
2018-08-31T18:23:09.268Z,43.20
2018-08-31T18:28:12.570Z,43.30
2018-08-31T18:33:15.996Z,43.30
2018-08-31T18:38:19.516Z,43.40
2018-08-31T18:43:23.233Z,43.40
2018-08-31T18:48:27.571Z,43.40
2018-08-31T18:53:31.813Z,43.40
2018-08-31T18:58:35.044Z,43.40
2018-08-31T19:03:38.656Z,43.40
2018-08-31T19:08:43.497Z,43.40
2018-08-31T19:13:47.033Z,43.40
2018-08-31T19:18:50.550Z,43.40
2018-08-31T19:23:53.866Z,43.40
2018-08-31T19:28:57.385Z,43.40
2018-08-31T19:34:09.013Z,43.50
2018-08-31T19:39:13.992Z,43.50
2018-08-31T19:44:17.512Z,43.50
2018-08-31T19:49:20.877Z,43.60
2018-08-31T19:54:24.750Z,43.60
2018-08-31T19:59:28.689Z,43.60
2018-08-31T20:04:32.301Z,43.60
2018-08-31T20:09:35.870Z,43.70
2018-08-31T20:14:39.176Z,43.70
2018-08-31T20:19:43.224Z,43.70
2018-08-31T20:24:46.629Z,44.40
2018-08-31T20:29:49.991Z,43.70
2018-08-31T20:34:53.384Z,43.60
2018-08-31T20:39:56.724Z,43.60
2018-08-31T20:45:00.223Z,43.70
2018-08-31T20:50:03.614Z,43.70
2018-08-31T20:55:07.037Z,43.70
2018-08-31T21:00:11.581Z,43.80
2018-08-31T21:05:14.870Z,43.80
2018-08-31T21:10:18.433Z,43.80
2018-08-31T21:15:21.684Z,43.80
2018-08-31T21:20:24.989Z,43.70
2018-08-31T21:25:28.214Z,43.80
2018-08-31T21:30:31.466Z,43.90
2018-08-31T21:35:34.726Z,43.90
2018-08-31T21:40:41.414Z,43.90
2018-08-31T21:45:45.118Z,43.90
2018-08-31T21:50:48.643Z,43.90
2018-08-31T21:55:52.013Z,43.90
2018-08-31T22:01:01.427Z,44.00
2018-08-31T22:06:04.710Z,44.00
2018-08-31T22:11:08.856Z,44.10
2018-08-31T22:16:12.111Z,44.10
2018-08-31T22:21:15.289Z,44.20
2018-08-31T22:26:18.964Z,44.10
2018-08-31T22:31:22.252Z,44.10
2018-08-31T22:36:25.594Z,44.10
2018-08-31T22:41:28.877Z,44.10
2018-08-31T22:46:32.393Z,44.10
2018-08-31T22:51:35.762Z,44.20
2018-08-31T22:56:39.080Z,44.20
2018-08-31T23:01:42.494Z,44.20
2018-08-31T23:06:45.687Z,44.20
2018-08-31T23:11:48.888Z,44.30
2018-08-31T23:16:52.069Z,44.30
2018-08-31T23:21:55.477Z,44.30
2018-08-31T23:27:00.527Z,44.30
2018-08-31T23:32:04.964Z,44.30
2018-08-31T23:37:08.279Z,44.40
2018-08-31T23:42:11.601Z,45.00
2018-08-31T23:47:14.839Z,44.40
2018-08-31T23:52:18.324Z,44.40
2018-08-31T23:57:21.579Z,44.50
